createdAt,value
2018-05-23T00:00:45.809Z,17.83
2018-05-23T00:03:13.943Z,17.84
2018-05-23T00:05:42.110Z,17.80
2018-05-23T00:08:10.241Z,17.74
2018-05-23T00:37:37.596Z,17.67
2018-05-23T00:40:05.746Z,17.69
2018-05-23T00:42:34.671Z,17.71
2018-05-23T00:45:02.839Z,17.69
2018-05-23T00:47:30.990Z,17.69
2018-05-23T00:49:59.134Z,17.68
2018-05-23T00:52:27.308Z,17.67
2018-05-23T00:55:07.254Z,17.65
2018-05-23T00:57:35.410Z,17.64
2018-05-23T01:00:03.577Z,17.62
2018-05-23T01:02:32.967Z,17.60
2018-05-23T01:05:01.109Z,17.60
2018-05-23T01:07:29.275Z,17.56
2018-05-23T01:09:57.420Z,17.55
2018-05-23T01:12:25.576Z,17.52
2018-05-23T01:14:53.757Z,17.49
2018-05-23T01:17:21.916Z,17.46
2018-05-23T01:19:50.081Z,17.41
2018-05-23T01:22:30.918Z,17.37
2018-05-23T01:24:59.060Z,17.32
2018-05-23T01:27:27.218Z,17.28
2018-05-23T01:29:55.377Z,17.26
2018-05-23T01:32:24.657Z,17.24
2018-05-23T01:34:52.810Z,17.20
2018-05-23T01:37:20.964Z,17.20
2018-05-23T01:39:49.110Z,17.18
2018-05-23T01:42:17.247Z,17.19
2018-05-23T01:44:45.419Z,17.22
2018-05-23T01:47:13.554Z,17.22
2018-05-23T01:49:41.699Z,17.21
2018-05-23T01:52:09.856Z,17.20
2018-05-23T01:54:37.997Z,17.20
2018-05-23T01:57:06.171Z,17.19
2018-05-23T01:59:34.307Z,17.18
2018-05-23T02:02:05.815Z,17.14
2018-05-23T02:04:33.968Z,17.14
2018-05-23T02:07:02.118Z,17.18
2018-05-23T02:09:30.275Z,17.17
2018-05-23T02:11:58.435Z,17.15
2018-05-23T02:14:26.595Z,17.12
2018-05-23T02:16:54.728Z,17.09
2018-05-23T02:19:22.890Z,17.06
2018-05-23T02:21:51.037Z,17.04
2018-05-23T02:24:19.208Z,17.02
2018-05-23T02:26:47.341Z,16.96
2018-05-23T02:29:15.498Z,16.95
2018-05-23T02:31:43.660Z,16.97
2018-05-23T02:34:11.851Z,17.03
2018-05-23T02:36:39.995Z,17.05
2018-05-23T02:39:08.139Z,17.05
2018-05-23T02:41:36.993Z,17.04
2018-05-23T02:44:08.379Z,17.03
2018-05-23T02:46:37.121Z,17.00
2018-05-23T02:49:05.285Z,17.02
2018-05-23T02:51:33.457Z,17.02
2018-05-23T02:54:01.591Z,16.99
2018-05-23T02:56:29.759Z,16.95
2018-05-23T02:58:57.899Z,16.93
2018-05-23T03:01:26.088Z,16.87
2018-05-23T03:03:54.319Z,16.80
2018-05-23T03:06:22.474Z,16.79
2018-05-23T03:08:53.228Z,16.75
2018-05-23T03:11:21.387Z,16.76
2018-05-23T03:13:49.522Z,16.77
2018-05-23T03:16:24.200Z,16.78
2018-05-23T03:18:52.361Z,16.78
2018-05-23T03:21:33.537Z,16.76
2018-05-23T03:24:01.699Z,16.74
2018-05-23T03:26:33.246Z,16.69
2018-05-23T03:29:01.439Z,16.67
2018-05-23T03:31:29.578Z,16.67
2018-05-23T03:34:06.161Z,16.67
2018-05-23T03:36:34.305Z,16.63
2018-05-23T03:39:02.446Z,16.65
2018-05-23T03:41:30.597Z,16.68
2018-05-23T03:43:58.743Z,16.67
2018-05-23T03:46:33.170Z,16.65
2018-05-23T03:49:01.333Z,16.64
2018-05-23T03:51:29.491Z,16.60
2018-05-23T03:53:57.667Z,16.58
2018-05-23T03:56:25.813Z,16.59
2018-05-23T03:59:04.363Z,16.59
2018-05-23T04:01:44.365Z,16.62
2018-05-23T04:04:24.272Z,16.63
2018-05-23T04:07:07.489Z,16.62
2018-05-23T04:09:42.292Z,16.62
2018-05-23T04:12:11.225Z,16.62
2018-05-23T04:14:39.377Z,16.64
2018-05-23T04:17:07.521Z,16.64
2018-05-23T04:19:35.673Z,16.65
2018-05-23T04:22:03.925Z,16.68
2018-05-23T04:24:42.331Z,16.72
2018-05-23T04:27:10.471Z,16.76
2018-05-23T04:29:38.627Z,16.78
2018-05-23T04:32:06.779Z,16.79
2018-05-23T04:34:34.942Z,16.79
2018-05-23T04:37:03.097Z,16.83
2018-05-23T04:39:31.237Z,16.85
2018-05-23T04:41:59.393Z,16.89
2018-05-23T04:44:27.520Z,16.93
2018-05-23T04:46:55.665Z,16.94
2018-05-23T04:49:23.825Z,16.94
2018-05-23T04:51:52.038Z,16.94
2018-05-23T04:54:32.834Z,16.96
2018-05-23T04:57:00.972Z,17.00
2018-05-23T04:59:29.120Z,17.06
2018-05-23T05:01:57.291Z,17.12
2018-05-23T05:04:25.470Z,17.18
2018-05-23T05:06:53.670Z,17.21
2018-05-23T05:09:22.791Z,17.24
2018-05-23T05:11:50.938Z,17.27
2018-05-23T05:14:19.091Z,17.29
2018-05-23T05:16:47.243Z,17.32
2018-05-23T05:19:15.392Z,17.35
2018-05-23T05:21:43.542Z,17.37
2018-05-23T05:24:11.682Z,17.39
2018-05-23T05:26:40.808Z,17.42
2018-05-23T05:29:08.949Z,17.50
2018-05-23T05:31:37.113Z,17.57
2018-05-23T05:34:05.244Z,17.59
2018-05-23T05:36:35.570Z,17.58
2018-05-23T05:39:03.716Z,17.62
2018-05-23T05:41:41.935Z,17.67
2018-05-23T05:44:10.073Z,17.70
2018-05-23T05:46:38.224Z,17.72
2018-05-23T05:49:06.392Z,17.80
2018-05-23T05:51:34.518Z,17.83
2018-05-23T05:54:02.680Z,17.87
2018-05-23T05:56:30.818Z,17.86
2018-05-23T05:58:58.969Z,17.91
2018-05-23T06:01:27.126Z,17.96
2018-05-23T06:04:01.708Z,18.04
2018-05-23T06:06:29.861Z,18.17
2018-05-23T06:08:58.042Z,18.27
2018-05-23T06:11:26.249Z,18.38
2018-05-23T06:13:54.406Z,18.48
2018-05-23T06:16:29.337Z,18.52
2018-05-23T06:18:57.505Z,18.57
2018-05-23T06:21:25.654Z,18.52
2018-05-23T06:23:53.794Z,18.63
2018-05-23T06:26:21.946Z,18.69
2018-05-23T06:28:50.103Z,18.74
2018-05-23T06:31:18.260Z,18.77
2018-05-23T06:33:46.425Z,18.90
2018-05-23T06:36:14.585Z,18.98
2018-05-23T06:38:49.444Z,19.04
2018-05-23T06:41:17.600Z,19.06
2018-05-23T06:43:51.803Z,19.01
2018-05-23T06:46:33.787Z,19.11
2018-05-23T06:49:01.925Z,19.23
2018-05-23T06:51:30.095Z,19.32
2018-05-23T06:54:04.977Z,19.36
2018-05-23T06:56:33.143Z,19.30
2018-05-23T06:59:01.306Z,19.26
2018-05-23T07:01:29.458Z,19.29
2018-05-23T07:03:57.600Z,19.34
2018-05-23T07:06:29.010Z,19.39
2018-05-23T07:09:01.031Z,19.43
2018-05-23T07:11:29.200Z,19.52
2018-05-23T07:13:57.356Z,19.55
2018-05-23T07:16:25.498Z,19.52
2018-05-23T07:19:10.282Z,19.55
2018-05-23T07:21:38.425Z,19.65
2018-05-23T07:24:08.750Z,19.72
2018-05-23T07:26:36.918Z,19.81
2018-05-23T07:29:05.062Z,19.90
2018-05-23T07:31:35.043Z,19.97
2018-05-23T07:34:03.183Z,20.11
2018-05-23T07:36:31.333Z,20.17
2018-05-23T07:38:59.465Z,20.29
2018-05-23T07:41:27.619Z,20.29
2018-05-23T07:44:02.175Z,20.28
2018-05-23T07:46:30.341Z,20.32
2018-05-23T07:48:58.499Z,20.35
2018-05-23T07:51:28.398Z,20.39
2018-05-23T07:53:56.541Z,20.45
2018-05-23T07:56:29.395Z,20.53
2018-05-23T07:59:03.834Z,20.56
2018-05-23T08:01:32.003Z,20.51
2018-05-23T08:04:00.186Z,20.63
2018-05-23T08:06:28.341Z,20.67
2018-05-23T08:08:56.504Z,20.76
2018-05-23T08:11:24.700Z,20.78
2018-05-23T08:13:52.851Z,20.79
2018-05-23T08:16:21.029Z,20.73
2018-05-23T08:18:49.164Z,20.78
2018-05-23T08:21:17.329Z,20.85
2018-05-23T08:23:45.480Z,20.96
2018-05-23T08:26:16.834Z,21.05
2018-05-23T08:28:44.985Z,21.18
2018-05-23T08:31:20.008Z,21.31
2018-05-23T08:33:48.192Z,21.36
2018-05-23T08:36:17.455Z,21.52
2018-05-23T08:38:45.564Z,21.58
2018-05-23T08:41:13.713Z,21.53
2018-05-23T08:43:41.875Z,21.53
2018-05-23T08:46:10.037Z,21.54
2018-05-23T08:48:38.199Z,21.49
2018-05-23T08:51:06.386Z,21.53
2018-05-23T08:53:34.551Z,21.48
2018-05-23T08:56:02.730Z,21.48
2018-05-23T08:58:30.871Z,21.45
2018-05-23T09:03:31.659Z,21.53
2018-05-23T09:05:59.851Z,21.55
2018-05-23T09:08:27.991Z,21.60
2018-05-23T09:10:56.165Z,21.59
2018-05-23T09:13:24.344Z,21.67
2018-05-23T09:15:52.489Z,21.81
2018-05-23T09:18:20.667Z,21.97
2018-05-23T09:20:55.224Z,22.01
2018-05-23T09:23:23.390Z,21.97
2018-05-23T09:25:51.537Z,21.95
2018-05-23T09:28:19.723Z,22.07
2018-05-23T09:30:48.771Z,22.04
2018-05-23T09:33:16.970Z,22.04
2018-05-23T09:35:48.097Z,22.02
2018-05-23T09:38:16.285Z,22.09
2018-05-23T09:40:44.454Z,22.19
2018-05-23T09:43:12.615Z,22.21
2018-05-23T09:45:40.779Z,22.13
2018-05-23T09:48:12.119Z,22.20
2018-05-23T09:50:40.282Z,22.35
2018-05-23T09:53:10.798Z,22.37
2018-05-23T09:55:38.980Z,22.43
2018-05-23T09:58:12.893Z,22.48
2018-05-23T10:00:47.259Z,22.53
2018-05-23T10:03:15.419Z,22.71
2018-05-23T10:05:43.573Z,22.83
2018-05-23T10:08:12.885Z,22.99
2018-05-23T10:10:41.108Z,23.05
2018-05-23T10:13:09.274Z,22.85
2018-05-23T10:15:37.429Z,22.71
2018-05-23T10:18:12.141Z,22.60
2018-05-23T10:20:41.705Z,22.50
2018-05-23T10:23:09.895Z,22.39
2018-05-23T10:25:38.049Z,22.34
2018-05-23T10:28:06.176Z,22.36
2018-05-23T10:30:34.333Z,22.52
2018-05-23T10:33:02.510Z,22.68
2018-05-23T10:35:30.684Z,22.85
2018-05-23T10:37:59.175Z,22.91
2018-05-23T10:40:27.343Z,23.10
2018-05-23T10:42:55.509Z,23.29
2018-05-23T10:45:27.451Z,23.35
2018-05-23T10:47:55.608Z,23.66
2018-05-23T10:50:23.756Z,23.80
2018-05-23T10:52:51.904Z,24.00
2018-05-23T10:55:20.881Z,24.25
2018-05-23T10:57:52.626Z,24.31
2018-05-23T11:00:21.002Z,24.04
2018-05-23T11:02:49.266Z,23.85
2018-05-23T11:05:17.336Z,23.77
2018-05-23T11:07:45.513Z,23.65
2018-05-23T11:10:19.624Z,23.63
2018-05-23T11:12:47.784Z,23.61
2018-05-23T11:15:17.655Z,23.55
2018-05-23T11:17:45.785Z,23.49
2018-05-23T11:20:13.931Z,23.48
2018-05-23T11:22:42.070Z,23.44
2018-05-23T11:25:13.330Z,23.35
2018-05-23T11:27:41.503Z,23.35
2018-05-23T11:30:11.392Z,23.36
2018-05-23T11:32:42.574Z,23.38
2018-05-23T11:35:10.732Z,23.60
2018-05-23T11:37:38.890Z,23.97
2018-05-23T11:40:07.027Z,24.16
2018-05-23T11:42:35.186Z,24.11
2018-05-23T11:45:03.340Z,24.05
2018-05-23T11:47:31.517Z,23.95
2018-05-23T11:49:59.668Z,23.81
2018-05-23T11:52:27.855Z,23.80
2018-05-23T11:54:56.001Z,23.96
2018-05-23T11:57:24.155Z,24.14
2018-05-23T11:59:52.458Z,24.30
2018-05-23T12:02:20.625Z,24.39
2018-05-23T12:04:48.789Z,24.50
2018-05-23T12:07:16.947Z,24.47
2018-05-23T12:09:45.097Z,24.64
2018-05-23T12:12:14.117Z,24.75
2018-05-23T12:14:42.270Z,24.84
2018-05-23T12:17:10.477Z,24.79
2018-05-23T12:19:38.721Z,24.83
2018-05-23T12:22:06.818Z,24.86
2018-05-23T12:24:35.060Z,25.07
2018-05-23T12:27:03.225Z,25.01
2018-05-23T12:29:31.360Z,24.92
2018-05-23T12:31:59.519Z,24.95
2018-05-23T12:34:34.344Z,25.12
2018-05-23T12:37:02.509Z,25.36
2018-05-23T12:39:30.651Z,25.51
2018-05-23T12:41:58.821Z,25.47
2018-05-23T12:44:29.892Z,25.64
2018-05-23T12:46:58.058Z,25.73
2018-05-23T12:49:26.234Z,25.73
2018-05-23T12:51:54.388Z,25.75
2018-05-23T12:54:22.530Z,25.71
2018-05-23T12:56:59.197Z,25.84
2018-05-23T12:59:27.369Z,25.98
2018-05-23T13:01:56.241Z,26.11
2018-05-23T13:04:34.699Z,26.23
2018-05-23T13:07:02.846Z,26.41
2018-05-23T13:09:31.046Z,26.49
2018-05-23T13:11:59.179Z,26.42
2018-05-23T13:14:27.332Z,26.48
2018-05-23T13:16:56.284Z,26.32
2018-05-23T13:19:30.636Z,26.23
2018-05-23T13:21:58.801Z,26.36
2018-05-23T13:24:39.632Z,26.54
2018-05-23T13:27:07.774Z,26.61
2018-05-23T13:29:36.571Z,26.78
2018-05-23T13:32:04.744Z,26.81
2018-05-23T13:34:32.891Z,26.93
2018-05-23T13:37:01.061Z,27.04
2018-05-23T13:39:29.388Z,26.92
2018-05-23T13:41:57.540Z,26.89
2018-05-23T13:44:25.798Z,27.08
2018-05-23T13:46:53.931Z,27.32
2018-05-23T13:49:22.126Z,27.63
2018-05-23T13:51:50.261Z,27.85
2018-05-23T13:54:18.422Z,27.96
2018-05-23T13:56:46.591Z,28.00
2018-05-23T13:59:14.766Z,28.06
2018-05-23T14:01:43.011Z,28.27
2018-05-23T14:04:11.066Z,28.42
2018-05-23T14:06:39.230Z,28.49
2018-05-23T14:09:08.166Z,28.74
2018-05-23T14:11:36.324Z,29.06
2018-05-23T14:14:05.445Z,29.25
2018-05-23T14:16:33.631Z,29.80
2018-05-23T14:19:01.789Z,30.25
2018-05-23T14:21:29.964Z,30.57
2018-05-23T14:23:58.091Z,29.98
2018-05-23T14:26:26.226Z,29.30
2018-05-23T14:28:54.434Z,28.68
2018-05-23T14:31:22.621Z,29.28
2018-05-23T14:33:50.784Z,29.54
2018-05-23T14:36:18.930Z,29.37
2018-05-23T14:38:47.102Z,29.32
2018-05-23T14:41:15.244Z,29.78
2018-05-23T14:43:43.558Z,29.70
2018-05-23T14:46:11.672Z,29.58
2018-05-23T14:48:39.898Z,30.01
2018-05-23T14:51:08.077Z,30.35
2018-05-23T14:53:36.225Z,30.04
2018-05-23T14:56:04.380Z,29.99
2018-05-23T14:58:32.529Z,30.12
2018-05-23T15:01:00.674Z,30.08
2018-05-23T15:03:35.811Z,29.90
2018-05-23T15:06:04.592Z,29.79
2018-05-23T15:08:32.759Z,29.70
2018-05-23T15:11:00.962Z,29.40
2018-05-23T15:13:29.136Z,29.20
2018-05-23T15:15:57.266Z,29.01
2018-05-23T15:18:26.195Z,29.08
2018-05-23T15:20:54.562Z,29.01
2018-05-23T15:23:22.719Z,28.91
2018-05-23T15:25:50.888Z,28.81
2018-05-23T15:28:19.039Z,28.54
2018-05-23T15:30:47.206Z,28.37
2018-05-23T15:33:15.362Z,28.24
2018-05-23T15:35:43.516Z,28.05
2018-05-23T15:38:11.691Z,27.88
2018-05-23T15:40:41.441Z,27.69
2018-05-23T15:43:09.643Z,27.40
2018-05-23T15:45:41.255Z,27.11
2018-05-23T15:48:09.784Z,27.06
2018-05-23T15:50:37.962Z,27.02
2018-05-23T15:53:06.106Z,26.89
2018-05-23T15:55:34.266Z,26.79
2018-05-23T15:58:02.415Z,26.67
2018-05-23T16:00:30.563Z,26.50
2018-05-23T16:02:58.802Z,26.40
2018-05-23T16:05:26.897Z,26.29
2018-05-23T16:07:55.082Z,26.22
2018-05-23T16:10:23.241Z,26.17
2018-05-23T16:12:51.430Z,26.12
2018-05-23T16:15:19.654Z,26.09
2018-05-23T16:17:47.762Z,26.05
2018-05-23T16:20:17.081Z,25.98
2018-05-23T16:22:45.231Z,25.89
2018-05-23T16:25:13.415Z,25.81
2018-05-23T16:27:42.607Z,25.75
2018-05-23T16:30:10.878Z,25.70
2018-05-23T16:32:39.035Z,25.68
2018-05-23T16:35:07.189Z,25.66
2018-05-23T16:37:35.316Z,25.61
2018-05-23T16:40:03.474Z,25.57
2018-05-23T16:42:31.620Z,25.55
2018-05-23T16:44:59.814Z,25.55
2018-05-23T16:47:27.989Z,25.52
2018-05-23T16:49:56.147Z,25.51
2018-05-23T16:52:24.292Z,25.47
2018-05-23T16:54:52.459Z,25.45
2018-05-23T16:57:20.619Z,25.42
2018-05-23T16:59:48.764Z,25.34
2018-05-23T17:02:16.931Z,25.29
2018-05-23T17:04:45.089Z,25.27
2018-05-23T17:07:14.917Z,25.18
2018-05-23T17:09:43.054Z,25.08
2018-05-23T17:12:11.269Z,25.04
2018-05-23T17:14:39.424Z,24.98
2018-05-23T17:17:07.592Z,24.92
2018-05-23T17:19:35.766Z,24.88
2018-05-23T17:22:03.913Z,24.83
2018-05-23T17:24:32.654Z,24.78
2018-05-23T17:27:00.802Z,24.70
2018-05-23T17:29:28.955Z,24.67
2018-05-23T17:31:57.087Z,24.61
2018-05-23T17:34:25.255Z,24.56
2018-05-23T17:36:53.403Z,24.52
2018-05-23T17:39:21.583Z,24.47
2018-05-23T17:41:49.739Z,24.42
2018-05-23T17:44:18.260Z,24.37
2018-05-23T17:46:46.421Z,24.33
2018-05-23T17:49:14.578Z,24.28
2018-05-23T17:51:46.296Z,24.22
2018-05-23T17:54:18.554Z,24.18
2018-05-23T17:56:46.726Z,24.14
2018-05-23T17:59:15.017Z,24.09
2018-05-23T18:01:43.185Z,24.02
2018-05-23T18:04:11.339Z,23.68
2018-05-23T18:06:39.517Z,22.25
2018-05-23T18:09:07.663Z,21.61
2018-05-23T18:11:35.810Z,21.23
2018-05-23T18:14:04.026Z,21.15
2018-05-23T18:16:32.187Z,21.24
2018-05-23T18:19:00.343Z,21.24
2018-05-23T18:21:28.922Z,21.16
2018-05-23T18:23:57.135Z,21.05
2018-05-23T18:26:26.129Z,20.93
2018-05-23T18:28:55.089Z,20.82
2018-05-23T18:31:23.244Z,20.53
2018-05-23T18:33:51.436Z,20.42
2018-05-23T18:36:19.612Z,20.41
2018-05-23T18:38:47.801Z,20.41
2018-05-23T18:41:15.983Z,20.46
2018-05-23T18:43:44.155Z,20.50
2018-05-23T18:46:12.346Z,20.53
2018-05-23T18:48:40.499Z,20.56
2018-05-23T18:51:08.648Z,20.48
2018-05-23T18:53:36.819Z,20.48
2018-05-23T18:56:04.979Z,20.41
2018-05-23T18:58:33.225Z,20.37
2018-05-23T19:01:01.410Z,20.23
2018-05-23T19:03:29.568Z,20.24
2018-05-23T19:06:01.501Z,20.14
2018-05-23T19:08:29.660Z,20.08
2018-05-23T19:10:57.805Z,20.01
2018-05-23T19:13:27.133Z,19.93
2018-05-23T19:15:55.343Z,19.86
2018-05-23T19:18:23.504Z,19.79
2018-05-23T19:20:54.499Z,19.74
2018-05-23T19:23:22.659Z,19.68
2018-05-23T19:25:50.828Z,19.61
2018-05-23T19:28:20.002Z,19.61
2018-05-23T19:30:48.187Z,19.57
2018-05-23T19:33:16.376Z,19.52
2018-05-23T19:35:44.533Z,19.50
2018-05-23T19:38:12.667Z,19.42
2018-05-23T19:40:40.830Z,19.39
2018-05-23T19:43:08.995Z,19.37
2018-05-23T19:45:37.196Z,19.37
2018-05-23T19:48:05.350Z,19.35
2018-05-23T19:50:33.512Z,19.27
2018-05-23T19:53:01.737Z,19.21
2018-05-23T19:55:29.860Z,19.19
2018-05-23T19:57:58.034Z,19.13
2018-05-23T20:00:27.066Z,19.11
2018-05-23T20:02:55.231Z,19.11
2018-05-23T20:05:23.381Z,19.08
2018-05-23T20:07:51.532Z,19.05
2018-05-23T20:10:19.704Z,19.01
2018-05-23T20:12:47.912Z,18.97
2018-05-23T20:15:16.072Z,18.94
2018-05-23T20:17:44.260Z,18.89
2018-05-23T20:20:12.408Z,18.89
2018-05-23T20:22:40.685Z,18.89
2018-05-23T20:25:08.838Z,18.87
2018-05-23T20:27:36.985Z,18.77
2018-05-23T20:30:05.151Z,18.77
2018-05-23T20:32:33.349Z,18.75
2018-05-23T20:35:01.534Z,18.69
2018-05-23T20:37:29.709Z,18.62
2018-05-23T20:39:57.886Z,18.57
2018-05-23T20:42:26.056Z,18.59
2018-05-23T20:44:54.230Z,18.56
2018-05-23T20:47:22.397Z,18.50
2018-05-23T20:49:50.567Z,18.48
2018-05-23T20:52:18.734Z,18.46
2018-05-23T20:54:46.892Z,18.43
2018-05-23T20:57:15.059Z,18.44
2018-05-23T20:59:43.227Z,18.44
2018-05-23T21:02:11.391Z,18.43
2018-05-23T21:04:39.557Z,18.39
2018-05-23T21:07:07.719Z,18.40
2018-05-23T21:09:35.886Z,18.40
2018-05-23T21:12:04.055Z,18.37
2018-05-23T21:14:32.220Z,18.36
2018-05-23T21:17:00.371Z,18.35
2018-05-23T21:19:28.609Z,18.35
2018-05-23T21:21:56.759Z,18.36
2018-05-23T21:24:24.935Z,18.35
2018-05-23T21:26:53.067Z,18.32
2018-05-23T21:29:21.229Z,18.32
2018-05-23T21:31:49.395Z,18.32
2018-05-23T21:34:18.590Z,18.31
2018-05-23T21:36:46.750Z,18.26
2018-05-23T21:39:14.921Z,18.24
2018-05-23T21:41:43.083Z,18.24
2018-05-23T21:44:11.235Z,18.23
2018-05-23T21:46:39.730Z,18.24
2018-05-23T21:49:07.879Z,18.22
2018-05-23T21:51:36.038Z,18.18
2018-05-23T21:54:04.220Z,18.16
2018-05-23T21:56:32.377Z,18.17
2018-05-23T21:59:00.549Z,18.15
2018-05-23T22:01:28.734Z,18.17
2018-05-23T22:03:56.892Z,18.17
2018-05-23T22:06:25.061Z,18.12
2018-05-23T22:08:53.521Z,18.10
2018-05-23T22:11:21.679Z,18.13
2018-05-23T22:13:49.859Z,17.97
2018-05-23T22:16:21.484Z,17.97
2018-05-23T22:18:49.660Z,17.98
2018-05-23T22:21:17.808Z,18.02
2018-05-23T22:23:45.990Z,18.04
2018-05-23T22:26:14.240Z,18.04
2018-05-23T22:28:42.420Z,18.04
2018-05-23T22:31:10.585Z,18.01
2018-05-23T22:33:38.785Z,18.01
2018-05-23T22:36:07.046Z,17.98
2018-05-23T22:38:35.225Z,17.96
2018-05-23T22:41:03.400Z,17.96
2018-05-23T22:43:31.570Z,17.99
2018-05-23T22:45:59.807Z,17.99
2018-05-23T22:48:28.718Z,17.95
2018-05-23T22:50:56.981Z,17.93
2018-05-23T22:53:25.138Z,17.93
2018-05-23T22:55:53.303Z,17.92
2018-05-23T22:58:21.447Z,17.91
2018-05-23T23:00:49.649Z,17.88
2018-05-23T23:03:20.967Z,17.84
2018-05-23T23:05:49.131Z,17.82
2018-05-23T23:08:17.311Z,17.86
2018-05-23T23:10:45.469Z,17.85
2018-05-23T23:13:13.631Z,17.80
2018-05-23T23:15:41.781Z,17.77
2018-05-23T23:18:12.437Z,17.75
2018-05-23T23:20:40.593Z,17.69
2018-05-23T23:23:08.762Z,17.69
2018-05-23T23:25:36.917Z,17.67
2018-05-23T23:28:05.097Z,17.65
2018-05-23T23:30:33.265Z,17.64
2018-05-23T23:33:01.407Z,17.61
2018-05-23T23:35:29.588Z,17.60
2018-05-23T23:37:57.777Z,17.58
2018-05-23T23:40:25.965Z,17.57
2018-05-23T23:42:54.117Z,17.55
2018-05-23T23:45:22.435Z,17.54
2018-05-23T23:47:51.315Z,17.51
2018-05-23T23:50:19.473Z,17.45
2018-05-23T23:53:00.270Z,17.38
2018-05-23T23:55:29.383Z,17.40
2018-05-23T23:57:57.523Z,17.45
